Time;durP1;ratioP1;P1;durP2;ratioP2;P2;SDS_P1;SDS_P2;PMS_P1;PMS_P2;Temp;Humidity;BMP_temperature;BMP_pressure;BME280_temperature;BME280_humidity;BME280_pressure;Samples;Min_cycle;Max_cycle;Signal;HPM_P1;HPM_P2
2022/03/19 00:02:23;;;;;;;14.60;4.03;;;11.70;61.70;;;;;;5048329;28;20347;-66
2022/03/19 00:04:49;;;;;;;11.18;3.92;;;11.70;61.80;;;;;;5056499;28;20083;-66
2022/03/19 00:07:15;;;;;;;13.32;4.03;;;11.70;61.90;;;;;;5048396;28;20045;-66
2022/03/19 00:09:41;;;;;;;11.57;4.13;;;11.70;62.00;;;;;;5040992;28;20450;-66
2022/03/19 00:12:14;;;;;;;14.82;4.00;;;11.60;62.00;;;;;;5054511;28;20021;-66
2022/03/19 00:14:41;;;;;;;12.13;4.15;;;11.60;62.10;;;;;;5040584;28;20037;-66
2022/03/19 00:17:07;;;;;;;9.55;3.50;;;11.60;62.30;;;;;;5052232;28;20104;-66
2022/03/19 00:19:32;;;;;;;12.35;3.67;;;11.60;62.40;;;;;;5042598;28;20104;-66
2022/03/19 00:21:58;;;;;;;12.75;4.38;;;11.50;62.40;;;;;;5052614;28;20362;-66
2022/03/19 00:24:24;;;;;;;9.25;3.65;;;11.50;62.40;;;;;;5036113;28;20331;-66
2022/03/19 00:26:49;;;;;;;13.13;4.32;;;11.50;62.60;;;;;;5053756;28;20497;-66
2022/03/19 00:29:15;;;;;;;12.82;4.15;;;11.50;62.60;;;;;;5042833;28;20021;-66
2022/03/19 00:31:43;;;;;;;10.55;3.85;;;11.50;62.70;;;;;;5036096;28;20080;-66
2022/03/19 00:34:08;;;;;;;10.85;3.90;;;11.50;62.70;;;;;;5036157;28;20426;-66
2022/03/19 00:36:34;;;;;;;12.60;4.00;;;11.50;62.80;;;;;;5037258;28;20079;-66
2022/03/19 00:39:00;;;;;;;8.18;3.33;;;11.50;62.80;;;;;;5036639;28;20040;-66
2022/03/19 00:41:26;;;;;;;12.80;4.07;;;11.50;62.90;;;;;;5053518;28;20370;-66
2022/03/19 00:43:51;;;;;;;10.95;3.92;;;11.40;62.80;;;;;;5039289;28;22050;-66
2022/03/19 00:46:19;;;;;;;12.63;4.25;;;11.50;63.00;;;;;;5047790;28;20029;-66
2022/03/19 00:48:44;;;;;;;8.35;3.08;;;11.40;62.90;;;;;;5041354;28;20112;-66
2022/03/19 00:51:10;;;;;;;11.90;4.00;;;11.40;63.00;;;;;;5051563;28;20478;-65
2022/03/19 00:53:36;;;;;;;13.00;4.05;;;11.40;63.10;;;;;;5042879;28;20036;-65
2022/03/19 00:56:02;;;;;;;10.75;4.25;;;11.40;63.20;;;;;;5035891;28;20061;-66
2022/03/19 00:58:28;;;;;;;13.63;4.13;;;11.30;63.20;;;;;;5047198;28;20037;-66
2022/03/19 01:00:53;;;;;;;13.57;4.43;;;11.40;63.40;;;;;;5042808;28;20025;-66
2022/03/19 01:03:20;;;;;;;12.05;4.53;;;11.30;63.40;;;;;;5046837;28;20049;-66
2022/03/19 01:05:45;;;;;;;11.73;4.63;;;11.30;63.50;;;;;;5048539;28;20120;-66
2022/03/19 01:08:14;;;;;;;13.00;4.95;;;11.30;63.60;;;;;;5039043;28;20120;-66
2022/03/19 01:10:40;;;;;;;10.55;4.45;;;11.30;63.70;;;;;;5046901;28;20024;-66
2022/03/19 01:13:07;;;;;;;10.15;3.85;;;11.20;63.70;;;;;;5031201;28;20087;-66
2022/03/19 01:15:33;;;;;;;10.32;4.15;;;11.20;63.80;;;;;;5050408;28;20033;-66
2022/03/19 01:18:00;;;;;;;12.35;3.83;;;11.20;63.80;;;;;;5041731;28;20021;-66
2022/03/19 01:20:26;;;;;;;9.13;4.45;;;11.20;63.90;;;;;;5047627;28;20022;-65
2022/03/19 01:22:52;;;;;;;12.23;4.10;;;11.20;63.90;;;;;;5041872;28;20027;-66
2022/03/19 01:25:19;;;;;;;10.20;4.28;;;11.20;63.90;;;;;;5054127;28;20025;-66
2022/03/19 01:27:46;;;;;;;11.35;4.15;;;11.20;64.00;;;;;;5038263;28;20067;-66
2022/03/19 01:30:14;;;;;;;11.52;4.38;;;11.20;64.10;;;;;;5047304;28;20589;-66
2022/03/19 01:32:40;;;;;;;12.95;5.15;;;11.10;64.10;;;;;;5037791;28;20056;-66
2022/03/19 01:35:07;;;;;;;12.07;4.10;;;11.20;64.10;;;;;;5055147;28;20044;-66
2022/03/19 01:37:33;;;;;;;10.30;5.13;;;11.10;64.10;;;;;;5055696;28;20090;-65
2022/03/19 01:39:59;;;;;;;13.25;4.57;;;11.10;64.30;;;;;;5040803;28;20021;-65
2022/03/19 01:42:26;;;;;;;13.32;5.63;;;11.10;64.30;;;;;;5037028;28;20163;-66
2022/03/19 01:44:53;;;;;;;11.57;4.85;;;11.10;64.50;;;;;;5043082;28;20036;-66
2022/03/19 01:47:19;;;;;;;13.57;6.78;;;11.10;64.60;;;;;;5050770;28;20068;-66
2022/03/19 01:49:45;;;;;;;18.95;6.88;;;11.10;64.60;;;;;;5040381;28;20029;-66
2022/03/19 01:52:11;;;;;;;12.73;5.68;;;11.10;64.60;;;;;;5053808;28;20028;-66
2022/03/19 01:54:39;;;;;;;12.73;5.30;;;11.10;64.70;;;;;;5039851;28;20108;-66
2022/03/19 01:57:05;;;;;;;14.52;5.32;;;11.00;64.80;;;;;;5042283;28;20347;-66
2022/03/19 01:59:34;;;;;;;14.38;6.80;;;11.00;64.80;;;;;;5046577;28;20400;-66
2022/03/19 02:02:03;;;;;;;11.90;5.72;;;11.00;64.90;;;;;;5048290;28;20024;-66
2022/03/19 02:04:29;;;;;;;16.58;6.45;;;10.90;65.00;;;;;;5034680;28;20041;-66
2022/03/19 02:06:55;;;;;;;14.27;6.00;;;11.00;65.00;;;;;;5049765;28;20124;-66
2022/03/19 02:09:22;;;;;;;11.40;5.63;;;11.00;65.10;;;;;;5043668;28;20025;-66
2022/03/19 02:11:48;;;;;;;15.18;5.95;;;10.90;65.10;;;;;;5053750;28;20035;-66
2022/03/19 02:14:15;;;;;;;14.52;6.65;;;10.90;65.20;;;;;;5046526;28;20029;-66
2022/03/19 02:16:42;;;;;;;16.40;6.50;;;10.90;65.20;;;;;;5042737;28;20044;-66
2022/03/19 02:19:07;;;;;;;12.88;6.38;;;10.90;65.20;;;;;;5053233;28;20025;-66
2022/03/19 02:21:45;;;;;;;11.40;6.00;;;10.90;65.20;;;;;;5036974;28;20025;-66
2022/03/19 02:26:56;;;;;;;13.52;6.22;;;10.90;65.10;;;;;;5045400;28;20041;-66
2022/03/19 02:29:22;;;;;;;14.63;5.15;;;10.90;65.10;;;;;;5041798;28;20517;-66
2022/03/19 02:31:50;;;;;;;13.82;5.50;;;10.90;65.00;;;;;;5035164;28;20466;-66
2022/03/19 02:34:16;;;;;;;10.40;5.22;;;10.90;65.00;;;;;;5038846;28;20026;-66
2022/03/19 02:36:42;;;;;;;12.68;5.32;;;10.90;65.00;;;;;;5041657;28;20374;-66
2022/03/19 02:39:13;;;;;;;13.68;6.03;;;10.90;64.90;;;;;;5047426;28;20025;-66
2022/03/19 02:41:44;;;;;;;12.48;5.30;;;10.90;65.00;;;;;;5050017;28;20017;-66
2022/03/19 02:44:11;;;;;;;15.43;6.03;;;10.90;64.90;;;;;;5048320;28;20029;-66
2022/03/19 02:46:42;;;;;;;14.05;5.57;;;10.80;64.80;;;;;;5037544;28;20368;-66
2022/03/19 02:49:08;;;;;;;13.10;5.50;;;10.80;64.90;;;;;;5039112;28;20025;-66
2022/03/19 02:51:35;;;;;;;13.02;5.47;;;10.80;64.90;;;;;;5038124;28;20026;-66
2022/03/19 02:54:04;;;;;;;16.73;6.10;;;10.80;65.00;;;;;;5036181;28;20033;-66
2022/03/19 02:56:33;;;;;;;13.98;5.63;;;10.80;64.90;;;;;;5051230;28;20024;-66
2022/03/19 02:59:12;;;;;;;14.32;5.40;;;10.80;64.90;;;;;;5034842;28;20026;-66
2022/03/19 03:01:39;;;;;;;12.38;5.13;;;10.70;64.80;;;;;;5035566;28;20041;-66
2022/03/19 03:04:05;;;;;;;12.38;5.45;;;10.70;64.80;;;;;;5052919;28;20068;-66
2022/03/19 03:06:37;;;;;;;14.18;5.55;;;10.70;64.80;;;;;;5052071;28;20028;-66
2022/03/19 03:09:04;;;;;;;14.45;5.25;;;10.70;64.80;;;;;;5034393;28;20060;-66
2022/03/19 03:11:30;;;;;;;18.42;5.80;;;10.70;64.80;;;;;;5049454;28;20037;-66
2022/03/19 03:13:55;;;;;;;12.18;5.55;;;10.70;64.90;;;;;;5052695;28;20028;-66
2022/03/19 03:16:21;;;;;;;14.25;5.38;;;10.70;64.90;;;;;;5027027;28;20036;-66
2022/03/19 03:18:47;;;;;;;12.00;5.20;;;10.60;64.80;;;;;;5042330;28;20040;-66
2022/03/19 03:21:13;;;;;;;11.25;4.78;;;10.60;64.80;;;;;;5050273;28;20029;-66
2022/03/19 03:23:39;;;;;;;12.38;5.88;;;10.60;64.90;;;;;;5038425;28;20041;-66
2022/03/19 03:26:05;;;;;;;10.38;4.57;;;10.60;64.90;;;;;;5047671;28;20051;-66
2022/03/19 03:28:30;;;;;;;13.75;5.30;;;10.60;64.90;;;;;;5023660;28;20029;-66
2022/03/19 03:30:56;;;;;;;12.20;4.85;;;10.50;64.90;;;;;;5037892;28;20441;-66
2022/03/19 03:33:22;;;;;;;13.10;5.97;;;10.50;65.00;;;;;;5033183;28;20095;-66
2022/03/19 03:35:48;;;;;;;14.98;5.30;;;10.40;65.70;;;;;;5038205;28;20025;-66
2022/03/19 03:38:14;;;;;;;12.98;5.40;;;10.40;65.10;;;;;;5043622;28;20457;-66
2022/03/19 03:40:41;;;;;;;12.80;5.93;;;10.40;65.20;;;;;;5046297;28;20315;-66
2022/03/19 03:43:08;;;;;;;15.52;5.90;;;10.40;65.30;;;;;;5046561;28;20025;-66
2022/03/19 03:45:34;;;;;;;15.02;6.60;;;10.40;65.30;;;;;;5037811;28;20029;-66
2022/03/19 03:48:00;;;;;;;13.15;5.65;;;10.40;65.30;;;;;;5041898;28;20051;-66
2022/03/19 03:50:26;;;;;;;13.43;6.43;;;10.40;65.30;;;;;;5035438;28;20068;-66
2022/03/19 03:52:52;;;;;;;16.27;6.90;;;10.40;65.30;;;;;;5038183;28;20446;-66
2022/03/19 03:55:18;;;;;;;13.90;6.95;;;10.30;65.40;;;;;;5034994;28;20037;-66
2022/03/19 03:57:44;;;;;;;17.88;6.28;;;10.30;65.50;;;;;;5034071;28;20068;-66
2022/03/19 04:00:10;;;;;;;13.80;6.30;;;10.30;65.50;;;;;;5041226;28;20036;-66
2022/03/19 04:02:39;;;;;;;15.13;6.38;;;10.30;65.40;;;;;;5034988;28;20038;-66
2022/03/19 04:05:07;;;;;;;14.48;5.88;;;10.20;66.10;;;;;;5045523;28;20026;-66
2022/03/19 04:07:32;;;;;;;15.98;6.78;;;10.20;65.50;;;;;;5052194;28;20339;-66
2022/03/19 04:09:58;;;;;;;14.05;6.53;;;10.20;65.60;;;;;;5035358;28;20025;-66
2022/03/19 04:12:23;;;;;;;13.00;4.97;;;10.20;65.60;;;;;;5034929;28;20373;-66
2022/03/19 04:14:49;;;;;;;15.82;6.80;;;10.20;65.60;;;;;;5039896;28;20036;-66
2022/03/19 04:17:15;;;;;;;14.57;6.03;;;10.20;65.60;;;;;;5040596;28;20026;-66
2022/03/19 04:19:41;;;;;;;16.10;6.40;;;10.20;65.70;;;;;;5050026;28;20102;-65
2022/03/19 04:22:07;;;;;;;12.68;6.00;;;10.10;65.60;;;;;;5039782;28;20087;-66
2022/03/19 04:24:33;;;;;;;13.68;6.75;;;10.20;65.70;;;;;;5050915;28;20044;-66
2022/03/19 04:26:59;;;;;;;17.00;6.85;;;10.20;65.70;;;;;;5056410;28;20021;-66
2022/03/19 04:29:24;;;;;;;14.48;6.70;;;10.20;65.70;;;;;;5045057;28;20105;-66
2022/03/19 04:31:50;;;;;;;14.25;6.28;;;10.10;65.70;;;;;;5048355;28;20045;-66
2022/03/19 04:34:15;;;;;;;15.00;6.43;;;10.10;65.80;;;;;;5041286;28;20319;-66
2022/03/19 04:36:43;;;;;;;10.98;5.47;;;10.10;65.90;;;;;;5022155;28;20466;-66
2022/03/19 04:39:09;;;;;;;11.02;6.55;;;10.10;65.90;;;;;;5041429;28;20025;-66
2022/03/19 04:41:36;;;;;;;13.18;6.50;;;10.10;65.80;;;;;;5039547;28;20029;-66
2022/03/19 04:44:03;;;;;;;13.00;6.50;;;10.10;65.90;;;;;;5034405;28;20052;-66
2022/03/19 04:46:29;;;;;;;15.25;6.93;;;10.10;65.80;;;;;;5034632;28;20106;-66
2022/03/19 04:48:54;;;;;;;13.27;5.57;;;10.10;65.80;;;;;;5034345;28;20423;-66
2022/03/19 04:51:21;;;;;;;11.55;5.60;;;10.10;66.00;;;;;;5035198;28;20025;-66
2022/03/19 04:53:50;;;;;;;13.68;6.53;;;10.00;65.90;;;;;;5039837;28;20416;-66
2022/03/19 04:56:22;;;;;;;14.15;6.40;;;10.00;65.90;;;;;;5040002;28;20120;-65
2022/03/19 04:58:48;;;;;;;;;;;10.00;65.90;;;;;;5036384;28;20045;-66
2022/03/19 05:01:16;;;;;;;14.85;6.75;;;10.00;65.80;;;;;;5038211;28;20314;-66
2022/03/19 05:03:42;;;;;;;12.05;6.05;;;9.90;65.90;;;;;;5048114;28;20444;-66
2022/03/19 05:06:08;;;;;;;15.70;6.22;;;9.90;66.00;;;;;;5044380;28;20020;-66
2022/03/19 05:08:34;;;;;;;15.82;7.38;;;9.90;66.00;;;;;;5052073;28;20379;-66
2022/03/19 05:11:16;;;;;;;13.63;6.07;;;9.90;66.00;;;;;;5043802;28;20489;-66
2022/03/19 05:13:48;;;;;;;15.35;6.35;;;9.90;66.10;;;;;;5047308;28;20048;-66
2022/03/19 05:16:18;;;;;;;14.98;6.40;;;9.90;66.10;;;;;;5043339;28;20029;-66
2022/03/19 05:18:44;;;;;;;12.15;5.97;;;9.90;66.00;;;;;;5055229;28;20025;-66
2022/03/19 05:21:12;;;;;;;13.25;5.88;;;9.80;66.00;;;;;;5048998;28;20136;-66
2022/03/19 05:23:37;;;;;;;12.02;6.50;;;9.90;66.10;;;;;;5035075;28;20357;-66
2022/03/19 05:26:03;;;;;;;14.63;5.80;;;9.80;66.00;;;;;;5041793;28;20112;-66
2022/03/19 05:28:29;;;;;;;11.73;6.00;;;9.80;66.00;;;;;;5056098;28;20044;-65
2022/03/19 05:30:57;;;;;;;11.13;5.68;;;9.80;65.90;;;;;;5049878;28;20045;-66
2022/03/19 05:34:29;;;;;;;13.40;6.47;;;9.80;65.90;;;;;;5035912;28;20099;-66
2022/03/19 05:36:09;;;;;;;14.57;6.20;;;9.80;65.90;;;;;;5041368;28;20473;-66
2022/03/19 05:38:35;;;;;;;13.77;6.20;;;9.70;65.80;;;;;;5047046;28;20048;-66
2022/03/19 05:41:01;;;;;;;13.13;6.13;;;9.70;65.80;;;;;;5038224;28;20037;-66
2022/03/19 05:43:26;;;;;;;12.13;6.03;;;9.70;65.80;;;;;;5054670;28;20029;-66
2022/03/19 05:45:53;;;;;;;12.93;5.57;;;9.70;65.80;;;;;;5042921;28;20034;-66
2022/03/19 05:48:18;;;;;;;12.48;5.97;;;9.70;65.70;;;;;;5054825;28;20037;-66
2022/03/19 05:50:44;;;;;;;12.30;5.53;;;9.70;65.70;;;;;;5045796;28;20025;-66
2022/03/19 05:53:09;;;;;;;13.80;5.70;;;9.70;65.70;;;;;;5054224;28;20029;-66
2022/03/19 05:55:35;;;;;;;13.88;5.45;;;9.60;65.50;;;;;;5044689;28;20366;-66
2022/03/19 05:58:01;;;;;;;9.93;4.78;;;9.70;65.40;;;;;;5051181;28;20040;-66
2022/03/19 06:00:26;;;;;;;12.80;4.93;;;9.60;65.30;;;;;;5048166;28;20025;-66
2022/03/19 06:02:52;;;;;;;10.85;5.30;;;9.60;65.30;;;;;;5048792;28;20083;-66
2022/03/19 06:05:19;;;;;;;11.80;5.03;;;9.60;65.10;;;;;;5040756;28;20407;-66
2022/03/19 06:07:44;;;;;;;10.63;4.85;;;9.60;65.00;;;;;;5049427;28;20017;-67
2022/03/19 06:10:10;;;;;;;12.13;5.57;;;9.60;64.90;;;;;;5043921;28;20052;-66
2022/03/19 06:12:36;;;;;;;8.75;4.68;;;9.60;64.80;;;;;;5042946;28;20025;-66
2022/03/19 06:15:03;;;;;;;11.13;4.65;;;9.60;64.80;;;;;;5038275;28;20416;-67
2022/03/19 06:17:29;;;;;;;10.80;4.75;;;9.60;64.70;;;;;;5044378;28;20033;-66
2022/03/19 06:19:54;;;;;;;13.35;5.25;;;9.60;64.60;;;;;;5045024;28;20047;-67
2022/03/19 06:22:22;;;;;;;11.60;4.68;;;9.60;64.40;;;;;;5039955;28;20468;-64
2022/03/19 06:24:48;;;;;;;14.40;4.97;;;9.60;64.20;;;;;;5050990;28;20033;-64
2022/03/19 06:27:14;;;;;;;12.40;5.03;;;9.60;64.10;;;;;;5026724;28;20040;-65
2022/03/19 06:29:40;;;;;;;12.60;5.05;;;9.70;64.10;;;;;;5047280;28;20029;-66
2022/03/19 06:32:05;;;;;;;11.15;5.03;;;9.70;63.90;;;;;;5044228;28;20047;-66
2022/03/19 06:34:32;;;;;;;13.43;4.18;;;9.60;63.80;;;;;;5054775;28;20041;-66
2022/03/19 06:39:43;;;;;;;14.90;5.57;;;9.70;63.60;;;;;;5035375;28;20091;-66
2022/03/19 06:42:09;;;;;;;12.63;5.00;;;9.70;63.50;;;;;;5037277;28;20037;-66
2022/03/19 06:44:35;;;;;;;10.30;4.43;;;9.80;63.40;;;;;;5048839;28;20029;-66
2022/03/19 06:47:00;;;;;;;11.90;4.47;;;9.80;63.20;;;;;;5049114;28;20029;-66
2022/03/19 06:49:28;;;;;;;12.82;4.22;;;9.80;63.00;;;;;;5051666;28;20044;-66
2022/03/19 06:51:54;;;;;;;11.23;5.03;;;10.00;62.80;;;;;;5046946;28;20146;-66
2022/03/19 06:54:20;;;;;;;11.02;4.07;;;10.00;62.40;;;;;;5055134;28;20032;-66
2022/03/19 06:56:46;;;;;;;9.82;4.03;;;10.20;62.00;;;;;;5045209;28;20064;-66
2022/03/19 06:59:11;;;;;;;10.20;4.45;;;10.30;61.60;;;;;;5040133;28;20041;-66
2022/03/19 07:01:37;;;;;;;9.65;4.32;;;10.50;61.10;;;;;;5049196;28;20100;-65
2022/03/19 07:04:03;;;;;;;10.85;4.07;;;10.60;60.60;;;;;;5041561;28;20059;-66
2022/03/19 07:06:29;;;;;;;12.77;4.53;;;10.80;60.00;;;;;;5052044;28;20090;-65
2022/03/19 07:08:55;;;;;;;11.77;4.32;;;11.00;59.50;;;;;;5045550;28;20029;-65
2022/03/19 07:11:21;;;;;;;10.35;4.25;;;11.00;59.30;;;;;;5050637;28;20037;-64
2022/03/19 07:13:46;;;;;;;8.88;4.15;;;11.20;59.00;;;;;;5051039;28;20025;-64
2022/03/19 07:16:15;;;;;;;12.02;4.55;;;11.20;58.70;;;;;;5038366;28;20036;-65
2022/03/19 07:18:40;;;;;;;13.80;4.25;;;11.40;58.60;;;;;;5042806;28;20439;-64
2022/03/19 07:21:06;;;;;;;11.35;4.60;;;11.50;58.30;;;;;;5038307;28;20150;-65
2022/03/19 07:23:31;;;;;;;12.80;4.10;;;11.60;58.10;;;;;;5050928;28;20037;-64
2022/03/19 07:25:59;;;;;;;13.27;5.13;;;11.70;57.80;;;;;;5053513;28;20049;-63
2022/03/19 07:28:26;;;;;;;14.65;3.97;;;11.80;57.60;;;;;;5047572;28;20041;-65
2022/03/19 07:30:52;;;;;;;9.57;4.20;;;11.80;57.40;;;;;;5047784;28;20044;-63
2022/03/19 07:33:18;;;;;;;13.13;4.10;;;11.90;57.50;;;;;;5050343;28;20032;-64
2022/03/19 07:35:44;;;;;;;14.10;4.18;;;11.90;57.40;;;;;;5051327;28;20032;-65
2022/03/19 07:38:11;;;;;;;15.15;4.55;;;12.00;57.40;;;;;;5050491;28;20021;-65
2022/03/19 07:43:22;;;;;;;11.73;4.15;;;12.20;57.10;;;;;;5052157;28;20099;-65
2022/03/19 07:45:48;;;;;;;9.80;4.10;;;12.30;56.80;;;;;;5045640;28;20037;-65
2022/03/19 07:48:14;;;;;;;11.57;4.30;;;12.40;56.70;;;;;;5045644;28;20028;-65
2022/03/19 07:50:40;;;;;;;10.23;3.83;;;12.50;56.50;;;;;;5050159;28;20319;-65
2022/03/19 07:53:06;;;;;;;11.05;3.97;;;12.70;56.30;;;;;;5049477;28;20032;-63
2022/03/19 07:55:33;;;;;;;10.85;3.80;;;12.80;56.00;;;;;;5049560;28;20061;-63
2022/03/19 07:57:58;;;;;;;10.90;3.95;;;12.90;55.90;;;;;;5048578;28;20099;-64
2022/03/19 08:00:24;;;;;;;10.98;4.70;;;13.10;55.60;;;;;;5047410;28;20045;-65
2022/03/19 08:02:51;;;;;;;10.85;4.38;;;13.20;55.20;;;;;;5039487;28;20116;-65
2022/03/19 08:05:17;;;;;;;10.55;4.60;;;13.40;55.00;;;;;;5037687;28;20036;-65
2022/03/19 08:07:42;;;;;;;10.05;4.47;;;13.50;54.70;;;;;;5040618;28;20033;-65
2022/03/19 08:10:10;;;;;;;12.40;4.25;;;13.70;54.40;;;;;;5058040;28;20355;-64
2022/03/19 08:12:37;;;;;;;13.27;4.60;;;13.90;53.90;;;;;;5056704;28;20059;-64
2022/03/19 08:15:04;;;;;;;9.07;3.80;;;14.10;53.50;;;;;;5057395;28;20060;-65
2022/03/19 08:17:30;;;;;;;12.82;4.05;;;14.30;53.10;;;;;;5055057;28;20036;-65
2022/03/19 08:19:57;;;;;;;11.27;4.30;;;14.30;52.50;;;;;;5039022;28;20033;-64
2022/03/19 08:22:25;;;;;;;12.82;4.30;;;14.30;52.20;;;;;;5036602;28;20036;-64
2022/03/19 08:24:52;;;;;;;8.82;3.47;;;14.50;52.00;;;;;;5037553;28;20068;-65
2022/03/19 08:27:18;;;;;;;11.52;4.20;;;14.60;51.60;;;;;;5038592;28;20022;-64
2022/03/19 08:29:43;;;;;;;11.60;4.43;;;14.70;51.30;;;;;;5055669;28;20028;-65
2022/03/19 08:32:10;;;;;;;9.38;3.85;;;14.80;51.20;;;;;;5056241;28;20040;-65
2022/03/19 08:34:36;;;;;;;9.23;3.85;;;15.00;50.80;;;;;;5057716;28;20338;-65
2022/03/19 08:37:02;;;;;;;8.18;3.60;;;15.10;50.40;;;;;;5044045;28;20352;-65
2022/03/19 08:42:12;;;;;;;9.57;3.50;;;15.40;49.80;;;;;;5056987;28;20047;-65
2022/03/19 08:44:38;;;;;;;12.88;4.57;;;15.60;49.40;;;;;;5057048;28;20131;-65
2022/03/19 08:47:04;;;;;;;11.30;3.08;;;15.70;49.10;;;;;;5056640;28;20032;-65
2022/03/19 08:49:29;;;;;;;8.45;3.60;;;15.80;48.80;;;;;;5057225;28;20024;-65
2022/03/19 08:51:55;;;;;;;9.98;3.70;;;16.00;48.50;;;;;;5044121;28;20108;-65
2022/03/19 08:54:22;;;;;;;7.80;3.40;;;16.10;48.00;;;;;;5035685;28;20095;-65
2022/03/19 08:56:49;;;;;;;8.70;3.15;;;16.20;47.70;;;;;;5036532;28;20080;-65
2022/03/19 08:59:19;;;;;;;10.90;3.88;;;16.30;47.20;;;;;;5040613;28;20017;-65
2022/03/19 09:01:46;;;;;;;7.90;3.20;;;16.40;46.90;;;;;;5055479;28;20079;-65
2022/03/19 09:04:12;;;;;;;11.98;3.60;;;16.50;46.70;;;;;;5056737;28;20029;-67
2022/03/19 09:06:38;;;;;;;8.63;3.45;;;16.50;46.40;;;;;;5056399;28;20071;-65
2022/03/19 09:09:05;;;;;;;8.48;3.13;;;16.60;46.10;;;;;;5045546;28;20036;-65
2022/03/19 09:11:32;;;;;;;10.38;3.28;;;16.70;45.80;;;;;;5035286;28;20030;-65
2022/03/19 09:13:58;;;;;;;7.88;2.60;;;16.80;45.50;;;;;;5036715;28;20112;-65
2022/03/19 09:16:24;;;;;;;8.60;3.10;;;16.90;45.00;;;;;;5035239;28;20064;-65
2022/03/19 09:18:50;;;;;;;7.90;2.92;;;17.00;44.90;;;;;;5037583;28;20100;-65
2022/03/19 09:21:17;;;;;;;13.30;3.35;;;17.10;44.60;;;;;;5049613;28;20029;-65
2022/03/19 09:23:45;;;;;;;7.65;2.92;;;17.20;44.20;;;;;;5047584;28;20059;-65
2022/03/19 09:26:11;;;;;;;8.48;3.17;;;17.30;43.80;;;;;;5036058;28;20112;-65
2022/03/19 09:28:37;;;;;;;8.57;3.22;;;17.40;43.40;;;;;;5053504;28;20029;-66
2022/03/19 09:31:03;;;;;;;7.70;2.58;;;17.40;43.10;;;;;;5053852;28;20107;-65
2022/03/19 09:33:28;;;;;;;8.82;2.55;;;17.40;42.90;;;;;;5054624;28;20326;-66
2022/03/19 09:35:54;;;;;;;6.57;2.40;;;17.30;42.70;;;;;;5043921;28;20029;-67
2022/03/19 09:38:20;;;;;;;10.20;3.30;;;17.20;42.50;;;;;;5035686;28;20053;-66
2022/03/19 09:40:45;;;;;;;8.05;2.70;;;17.20;42.10;;;;;;5022559;28;20067;-66
2022/03/19 09:43:11;;;;;;;8.90;2.95;;;17.10;41.90;;;;;;5052030;28;20033;-66
2022/03/19 09:45:38;;;;;;;7.32;2.15;;;17.10;41.70;;;;;;5049208;28;20033;-66
2022/03/19 09:48:04;;;;;;;10.40;2.53;;;17.10;41.50;;;;;;5042566;28;20025;-64
2022/03/19 09:50:30;;;;;;;8.82;2.70;;;17.00;41.20;;;;;;5051812;28;20029;-64
2022/03/19 09:53:00;;;;;;;7.07;2.47;;;17.00;40.80;;;;;;5049840;28;20051;-64
2022/03/19 09:55:29;;;;;;;10.23;2.63;;;16.90;40.50;;;;;;5042283;28;20505;-63
2022/03/19 09:57:55;;;;;;;7.22;2.40;;;16.80;40.10;;;;;;5038427;28;20477;-64
2022/03/19 10:00:22;;;;;;;11.32;2.70;;;16.90;40.10;;;;;;5023757;28;20022;-64
2022/03/19 10:02:53;;;;;;;7.35;2.03;;;17.00;39.60;;;;;;5036471;28;20303;-63
2022/03/19 10:10:50;;;;;;;4.63;2.05;;;17.20;38.80;;;;;;5038902;28;20123;-64
2022/03/19 10:13:15;;;;;;;9.18;2.35;;;17.20;38.40;;;;;;5020985;28;20129;-66
2022/03/19 10:15:42;;;;;;;9.20;2.00;;;17.10;38.10;;;;;;5046121;28;20036;-65
2022/03/19 10:18:08;;;;;;;6.47;2.10;;;17.10;37.90;;;;;;5054295;28;20029;-65
2022/03/19 10:20:34;;;;;;;7.75;2.58;;;17.30;37.70;;;;;;5055726;28;20029;-65
2022/03/19 10:23:00;;;;;;;7.20;2.00;;;17.30;37.10;;;;;;5043009;28;20025;-65
2022/03/19 10:25:26;;;;;;;7.18;2.30;;;17.30;36.70;;;;;;5026421;28;20037;-65
2022/03/19 10:27:59;;;;;;;6.72;2.05;;;17.20;36.30;;;;;;5054233;28;20071;-65
2022/03/19 10:30:27;;;;;;;7.85;2.60;;;17.20;36.20;;;;;;5052510;28;20124;-65
2022/03/19 10:32:56;;;;;;;7.25;2.17;;;17.30;36.00;;;;;;5045313;28;20151;-65
2022/03/19 10:35:26;;;;;;;6.90;2.42;;;17.40;35.80;;;;;;5041891;28;20033;-65
2022/03/19 10:37:52;;;;;;;6.05;2.25;;;17.40;34.70;;;;;;5054459;28;20036;-65
2022/03/19 10:40:19;;;;;;;5.70;1.90;;;17.30;34.90;;;;;;5053570;28;20090;-65
2022/03/19 10:42:44;;;;;;;5.90;2.00;;;17.40;34.80;;;;;;5046537;28;20117;-65
2022/03/19 10:45:20;;;;;;;8.30;2.58;;;17.30;34.80;;;;;;5035214;28;20112;-65
2022/03/19 10:47:47;;;;;;;7.18;2.58;;;17.30;34.60;;;;;;5035060;28;20033;-65
2022/03/19 10:50:21;;;;;;;6.30;1.95;;;17.30;35.00;;;;;;5048547;28;20044;-65
2022/03/19 10:52:48;;;;;;;8.63;2.13;;;17.40;35.00;;;;;;5041382;28;20178;-65
2022/03/19 10:55:15;;;;;;;6.78;2.10;;;17.40;35.00;;;;;;5053770;28;20327;-64
2022/03/19 10:57:41;;;;;;;8.20;2.70;;;17.50;35.00;;;;;;5035292;28;20029;-65
2022/03/19 11:00:08;;;;;;;7.80;2.38;;;17.60;34.60;;;;;;5034943;28;20045;-65
2022/03/19 11:02:35;;;;;;;6.38;2.30;;;17.60;34.50;;;;;;5041566;28;20041;-66
2022/03/19 11:05:01;;;;;;;8.70;2.50;;;17.60;34.30;;;;;;5044015;28;20466;-65
2022/03/19 11:07:31;;;;;;;4.93;2.28;;;17.50;34.30;;;;;;5030552;28;20098;-65
2022/03/19 11:09:58;;;;;;;6.20;1.98;;;17.60;34.40;;;;;;5039875;28;20100;-65
2022/03/19 11:12:29;;;;;;;5.57;2.10;;;17.70;34.40;;;;;;5040367;28;20030;-65
2022/03/19 11:14:58;;;;;;;4.90;1.67;;;17.60;34.00;;;;;;5045698;28;20073;-65
2022/03/19 11:17:30;;;;;;;6.30;2.30;;;17.60;33.80;;;;;;5043165;28;20366;-65
2022/03/19 11:20:05;;;;;;;7.38;1.80;;;17.70;33.50;;;;;;5045816;28;20076;-65
2022/03/19 11:22:50;;;;;;;3.65;1.48;;;17.60;33.00;;;;;;5049464;28;20044;-65
2022/03/19 11:25:28;;;;;;;5.47;1.98;;;17.60;32.90;;;;;;5039821;28;20044;-65
2022/03/19 11:28:05;;;;;;;6.65;1.88;;;17.50;32.90;;;;;;5029352;28;20320;-65
2022/03/19 11:30:37;;;;;;;5.13;1.67;;;17.60;33.00;;;;;;5037588;28;20052;-65
2022/03/19 11:33:06;;;;;;;4.80;1.60;;;17.60;32.90;;;;;;5055086;28;20025;-65
2022/03/19 11:35:33;;;;;;;5.93;1.55;;;17.80;32.70;;;;;;5058891;28;20040;-65
2022/03/19 11:38:11;;;;;;;6.35;1.83;;;17.80;32.20;;;;;;5046911;28;20135;-65
2022/03/19 11:40:42;;;;;;;7.68;1.83;;;17.70;31.80;;;;;;5037361;28;20180;-65
2022/03/19 11:43:09;;;;;;;5.05;1.60;;;17.70;32.00;;;;;;5021159;28;20084;-65
2022/03/19 11:45:55;;;;;;;4.72;1.42;;;17.70;31.90;;;;;;5036754;28;20049;-65
2022/03/19 11:48:39;;;;;;;3.90;1.50;;;17.80;31.60;;;;;;5038327;28;20120;-65
2022/03/19 11:51:25;;;;;;;6.00;2.03;;;17.70;31.40;;;;;;5038019;28;20120;-65
2022/03/19 11:53:54;;;;;;;4.03;1.50;;;17.70;31.50;;;;;;5037801;28;20037;-65
2022/03/19 11:56:47;;;;;;;5.38;1.65;;;17.60;31.50;;;;;;5038530;28;20427;-65
2022/03/19 11:59:23;;;;;;;4.45;1.33;;;17.60;31.50;;;;;;5050820;28;20033;-65
2022/03/19 12:02:04;;;;;;;5.18;1.30;;;17.70;31.60;;;;;;5037811;28;20581;-65
2022/03/19 12:04:55;;;;;;;6.35;1.45;;;17.70;31.60;;;;;;5022595;28;20037;-65
2022/03/19 12:07:43;;;;;;;8.68;1.60;;;17.80;31.30;;;;;;5038043;28;20147;-65
2022/03/19 12:10:13;;;;;;;6.22;1.55;;;17.90;31.20;;;;;;5037812;28;20036;-65
2022/03/19 12:12:41;;;;;;;4.30;1.15;;;17.80;31.00;;;;;;5036839;28;20163;-65
2022/03/19 12:15:32;;;;;;;5.18;1.35;;;17.70;30.50;;;;;;5037683;28;20025;-65
2022/03/19 12:18:33;;;;;;;5.15;1.48;;;17.60;30.30;;;;;;5037531;28;20068;-65
2022/03/19 12:21:01;;;;;;;5.05;1.45;;;17.50;30.50;;;;;;5049894;28;20541;-65
2022/03/19 12:23:27;;;;;;;3.10;1.25;;;17.40;30.70;;;;;;5051513;28;20032;-65
2022/03/19 12:26:00;;;;;;;6.05;1.80;;;17.40;31.40;;;;;;5057286;28;20033;-65
2022/03/19 12:28:27;;;;;;;4.60;1.45;;;17.40;30.80;;;;;;5010264;28;20029;-65
2022/03/19 12:30:52;;;;;;;5.85;1.55;;;17.30;30.70;;;;;;5037134;28;20045;-65
2022/03/19 12:33:18;;;;;;;4.72;1.48;;;17.30;31.00;;;;;;5037364;28;20334;-65
2022/03/19 12:35:46;;;;;;;6.88;1.83;;;17.30;31.30;;;;;;5036179;28;20032;-65
2022/03/19 12:38:27;;;;;;;4.72;1.67;;;17.30;31.50;;;;;;5047722;28;20021;-65
2022/03/19 12:43:38;;;;;;;5.90;1.58;;;17.20;31.70;;;;;;5055892;28;20029;-65
2022/03/19 12:46:05;;;;;;;4.43;1.50;;;17.20;31.70;;;;;;5057420;28;20068;-65
2022/03/19 12:48:32;;;;;;;5.75;1.75;;;17.20;31.50;;;;;;5056863;28;20025;-65
2022/03/19 12:50:58;;;;;;;6.55;1.40;;;17.10;31.40;;;;;;5057093;28;20029;-65
2022/03/19 12:53:38;;;;;;;5.50;1.35;;;17.10;31.40;;;;;;5056853;28;20101;-65
2022/03/19 12:56:12;;;;;;;;;;;17.00;31.20;;;;;;5038582;28;20090;-65
2022/03/19 12:58:39;;;;;;;4.20;1.42;;;17.00;31.60;;;;;;5036924;28;19952;-65
2022/03/19 13:01:08;;;;;;;6.40;1.75;;;16.80;31.60;;;;;;5035853;28;20024;-65
2022/03/19 13:03:34;;;;;;;3.03;1.20;;;16.70;31.30;;;;;;5036721;28;20353;-65
2022/03/19 13:06:00;;;;;;;6.72;1.77;;;16.60;31.40;;;;;;5036671;28;20040;-65